Time;durP1;ratioP1;P1;durP2;ratioP2;P2;SDS_P1;SDS_P2;PMS_P1;PMS_P2;Temp;Humidity;BMP_temperature;BMP_pressure;BME280_temperature;BME280_humidity;BME280_pressure;Samples;Min_cycle;Max_cycle;Signal;HPM_P1;HPM_P2
2023/12/16 00:00:51;;;;;;;7.55;2.42;;;;;;;;;;4969380;28;98689;-73
2023/12/16 00:03:18;;;;;;;8.77;3.10;;;;;;;;;;4972459;28;99826;-72
2023/12/16 00:05:45;;;;;;;12.40;2.60;;;;;;;;;;4975908;28;99876;-74
2023/12/16 00:08:11;;;;;;;11.23;2.97;;;;;;;;;;4973921;28;99724;-73
2023/12/16 00:10:38;;;;;;;13.48;3.45;;;;;;;;;;4993338;28;99174;-73
2023/12/16 00:13:04;;;;;;;14.75;3.50;;;;;;;;;;4986060;28;99735;-73
2023/12/16 00:15:31;;;;;;;7.95;3.55;;;;;;;;;;4980777;28;99895;-74
2023/12/16 00:17:58;;;;;;;10.07;2.20;;;;;;;;;;4984141;28;99608;-72
2023/12/16 00:20:24;;;;;;;9.82;2.50;;;;;;;;;;4983118;28;99752;-73
2023/12/16 00:22:51;;;;;;;9.75;3.30;;;;;;;;;;4985393;28;100277;-72
2023/12/16 00:25:17;;;;;;;11.07;2.50;;;;;;;;;;4964105;28;98539;-73
2023/12/16 00:27:44;;;;;;;13.80;3.15;;;;;;;;;;4952500;28;99652;-73
2023/12/16 00:30:11;;;;;;;7.38;2.38;;;;;;;;;;4970971;28;99529;-74
2023/12/16 00:32:39;;;;;;;8.90;2.28;;;;;;;;;;4976257;28;98349;-73
2023/12/16 00:35:07;;;;;;;7.68;2.42;;;;;;;;;;4971271;28;99991;-73
2023/12/16 00:37:33;;;;;;;13.50;2.25;;;;;;;;;;4975574;28;99131;-73
2023/12/16 00:40:01;;;;;;;6.97;2.63;;;;;;;;;;4978430;28;99557;-73
2023/12/16 00:42:27;;;;;;;8.73;2.50;;;;;;;;;;4989085;28;99280;-73
2023/12/16 00:44:55;;;;;;;19.17;3.83;;;;;;;;;;4977568;28;99613;-74
2023/12/16 00:47:22;;;;;;;7.18;2.10;;;;;;;;;;4990633;28;98529;-74
2023/12/16 00:49:48;;;;;;;6.85;2.70;;;;;;;;;;4988647;28;101897;-73
2023/12/16 00:52:15;;;;;;;4.57;2.38;;;;;;;;;;4986628;28;98070;-72
2023/12/16 00:54:41;;;;;;;7.55;2.28;;;;;;;;;;4976081;28;99988;-73
2023/12/16 00:57:08;;;;;;;10.43;2.78;;;;;;;;;;4980618;28;99021;-72
2023/12/16 00:59:35;;;;;;;20.65;2.58;;;;;;;;;;4982506;28;99456;-73
2023/12/16 01:02:02;;;;;;;14.02;2.50;;;;;;;;;;4971106;28;100551;-73
2023/12/16 01:04:28;;;;;;;11.20;3.20;;;;;;;;;;4971223;28;98210;-73
2023/12/16 01:06:55;;;;;;;6.05;1.80;;;;;;;;;;4984928;28;99836;-74
2023/12/16 01:09:24;;;;;;;9.35;2.30;;;;;;;;;;4980548;28;99080;-73
2023/12/16 01:11:50;;;;;;;6.30;1.92;;;;;;;;;;4968705;28;98382;-73
2023/12/16 01:14:18;;;;;;;15.35;2.50;;;;;;;;;;4958585;28;98789;-73
2023/12/16 01:16:44;;;;;;;8.05;2.63;;;;;;;;;;4990931;28;98503;-73
2023/12/16 01:19:11;;;;;;;10.27;2.33;;;;;;;;;;4989379;28;98924;-73
2023/12/16 01:21:43;;;;;;;4.40;1.65;;;;;;;;;;4981545;28;101004;-73
2023/12/16 01:24:10;;;;;;;;;;;;;;;;;;4984815;28;98442;-73
2023/12/16 01:26:36;;;;;;;8.80;2.83;;;;;;;;;;4974627;28;121947;-73
2023/12/16 01:29:04;;;;;;;8.13;2.17;;;;;;;;;;4971472;28;98988;-73
2023/12/16 01:31:31;;;;;;;10.02;2.42;;;;;;;;;;4970382;28;98275;-72
2023/12/16 01:33:58;;;;;;;7.10;2.30;;;;;;;;;;4970882;28;99562;-73
2023/12/16 01:36:24;;;;;;;11.15;2.45;;;;;;;;;;4978660;28;99946;-72
2023/12/16 01:38:51;;;;;;;13.00;3.47;;;;;;;;;;4980333;28;99473;-72
2023/12/16 01:41:18;;;;;;;10.60;3.05;;;;;;;;;;4985361;28;100061;-73
2023/12/16 01:43:44;;;;;;;8.40;2.13;;;;;;;;;;4975686;28;99125;-74
2023/12/16 01:46:11;;;;;;;13.35;3.13;;;;;;;;;;4970618;28;99999;-74
2023/12/16 01:48:40;;;;;;;10.05;2.90;;;;;;;;;;4970916;28;100494;-73
2023/12/16 01:51:07;;;;;;;8.95;2.67;;;;;;;;;;4969442;28;98220;-73
2023/12/16 01:53:33;;;;;;;12.35;2.92;;;;;;;;;;4970756;28;99540;-73
2023/12/16 01:56:00;;;;;;;7.55;2.30;;;;;;;;;;4969364;28;99245;-74
2023/12/16 01:58:26;;;;;;;8.65;2.50;;;;;;;;;;4974488;28;98211;-73
2023/12/16 02:00:53;;;;;;;9.88;2.60;;;;;;;;;;4970209;28;99935;-72
2023/12/16 02:03:20;;;;;;;17.48;2.47;;;;;;;;;;4970889;28;98223;-73
2023/12/16 02:05:47;;;;;;;11.68;2.90;;;;;;;;;;4971033;28;99565;-73
2023/12/16 02:08:13;;;;;;;7.00;2.58;;;;;;;;;;4969848;28;99947;-74
2023/12/16 02:10:40;;;;;;;11.52;2.65;;;;;;;;;;4971272;28;98128;-74
2023/12/16 02:13:06;;;;;;;11.48;2.88;;;;;;;;;;4977834;28;98652;-73
2023/12/16 02:15:33;;;;;;;17.73;2.92;;;;;;;;;;4977098;28;99250;-73
2023/12/16 02:17:59;;;;;;;12.32;2.53;;;;;;;;;;4970448;28;98223;-73
2023/12/16 02:20:26;;;;;;;13.38;3.45;;;;;;;;;;4973387;28;98633;-73
2023/12/16 02:22:53;;;;;;;12.52;2.50;;;;;;;;;;4969974;28;98218;-73
2023/12/16 02:25:20;;;;;;;13.52;3.47;;;;;;;;;;4970678;28;100833;-72
2023/12/16 02:27:47;;;;;;;7.40;2.35;;;;;;;;;;4951451;28;98997;-73
2023/12/16 02:30:13;;;;;;;14.52;3.40;;;;;;;;;;4968710;28;98248;-73
2023/12/16 02:32:43;;;;;;;12.00;3.10;;;;;;;;;;4977641;28;99580;-72
2023/12/16 02:35:10;;;;;;;9.00;2.83;;;;;;;;;;4954625;28;99857;-72
2023/12/16 02:37:36;;;;;;;13.40;3.13;;;;;;;;;;4976747;28;98198;-73
2023/12/16 02:40:03;;;;;;;19.45;3.25;;;;;;;;;;4988194;28;98590;-73
2023/12/16 02:42:31;;;;;;;13.15;3.78;;;;;;;;;;4991729;28;100105;-73
2023/12/16 02:44:57;;;;;;;11.60;2.70;;;;;;;;;;4986932;28;99471;-74
2023/12/16 02:47:24;;;;;;;8.38;2.28;;;;;;;;;;4981325;28;98925;-73
2023/12/16 02:49:50;;;;;;;20.58;3.88;;;;;;;;;;4986113;28;98248;-73
2023/12/16 02:52:18;;;;;;;13.57;3.13;;;;;;;;;;4983269;28;98431;-73
2023/12/16 02:54:45;;;;;;;8.52;2.80;;;;;;;;;;4970601;28;99055;-72
2023/12/16 02:57:11;;;;;;;14.63;3.92;;;;;;;;;;4969318;28;98261;-73
2023/12/16 02:59:38;;;;;;;9.57;2.80;;;;;;;;;;4983570;28;98725;-73
2023/12/16 03:02:05;;;;;;;9.48;3.42;;;;;;;;;;4991769;28;99979;-74
2023/12/16 03:04:31;;;;;;;19.48;4.05;;;;;;;;;;4969498;28;98998;-74
2023/12/16 03:06:58;;;;;;;14.68;3.88;;;;;;;;;;4979738;28;98991;-73
2023/12/16 03:09:25;;;;;;;7.20;2.65;;;;;;;;;;4974000;28;98142;-73
2023/12/16 03:11:51;;;;;;;8.63;2.72;;;;;;;;;;4986687;28;99674;-72
2023/12/16 03:14:18;;;;;;;18.45;4.20;;;;;;;;;;4982301;28;99486;-73
2023/12/16 03:16:44;;;;;;;11.02;3.63;;;;;;;;;;4980989;28;98257;-74
2023/12/16 03:19:11;;;;;;;13.02;3.42;;;;;;;;;;4967075;28;99434;-74
2023/12/16 03:21:39;;;;;;;13.52;4.88;;;;;;;;;;4983211;28;100493;-72
2023/12/16 03:24:06;;;;;;;12.73;3.63;;;;;;;;;;4992891;28;97945;-73
2023/12/16 03:26:32;;;;;;;14.13;4.13;;;;;;;;;;4986170;28;99905;-73
2023/12/16 03:28:59;;;;;;;12.38;3.35;;;;;;;;;;4985107;28;98142;-74
2023/12/16 03:31:25;;;;;;;16.02;4.22;;;;;;;;;;4987289;28;99759;-73
2023/12/16 03:33:53;;;;;;;8.13;3.35;;;;;;;;;;4987097;28;99911;-73
2023/12/16 03:36:20;;;;;;;18.13;7.25;;;;;;;;;;4971764;28;98281;-73
2023/12/16 03:38:46;;;;;;;7.78;3.10;;;;;;;;;;4988099;28;99745;-74
2023/12/16 03:41:12;;;;;;;19.73;3.88;;;;;;;;;;4967993;28;100037;-72
2023/12/16 03:43:39;;;;;;;12.52;4.07;;;;;;;;;;4989552;28;98489;-73
2023/12/16 03:46:07;;;;;;;13.18;3.58;;;;;;;;;;4974203;28;99454;-73
2023/12/16 03:48:34;;;;;;;8.80;4.10;;;;;;;;;;4949318;28;98492;-72
2023/12/16 03:51:01;;;;;;;11.88;3.80;;;;;;;;;;4956326;28;99540;-72
2023/12/16 03:53:27;;;;;;;16.63;4.25;;;;;;;;;;4967505;28;99083;-74
2023/12/16 03:55:53;;;;;;;12.82;3.83;;;;;;;;;;4967075;28;98319;-73
2023/12/16 03:58:20;;;;;;;15.70;4.15;;;;;;;;;;4962527;28;99582;-73
2023/12/16 04:00:47;;;;;;;11.45;4.47;;;;;;;;;;4968391;28;98620;-73
2023/12/16 04:03:13;;;;;;;11.18;4.18;;;;;;;;;;4969536;28;98397;-73
2023/12/16 04:05:40;;;;;;;12.95;4.13;;;;;;;;;;4969300;28;99560;-73
2023/12/16 04:08:07;;;;;;;14.93;3.83;;;;;;;;;;4971281;28;100438;-73
2023/12/16 04:10:33;;;;;;;13.80;3.95;;;;;;;;;;4970057;28;98678;-72
2023/12/16 04:13:00;;;;;;;11.88;3.78;;;;;;;;;;4971541;28;100041;-73
2023/12/16 04:15:26;;;;;;;14.27;4.80;;;;;;;;;;4984954;28;98203;-72
2023/12/16 04:17:53;;;;;;;13.80;4.30;;;;;;;;;;4968238;28;99714;-73
2023/12/16 04:20:19;;;;;;;13.57;4.18;;;;;;;;;;4968055;28;100102;-72
2023/12/16 04:22:46;;;;;;;7.95;3.83;;;;;;;;;;4979247;28;98422;-73
2023/12/16 04:25:12;;;;;;;12.45;4.40;;;;;;;;;;4979675;28;99475;-73
2023/12/16 04:27:39;;;;;;;16.77;3.97;;;;;;;;;;4967138;28;100289;-73
2023/12/16 04:30:06;;;;;;;7.03;3.95;;;;;;;;;;4978387;28;98512;-73
2023/12/16 04:32:33;;;;;;;21.25;5.03;;;;;;;;;;4975499;28;99309;-73
2023/12/16 04:34:59;;;;;;;14.70;4.75;;;;;;;;;;4983386;28;98214;-73
2023/12/16 04:37:26;;;;;;;13.43;4.75;;;;;;;;;;4984654;28;99469;-73
2023/12/16 04:39:52;;;;;;;25.23;4.47;;;;;;;;;;4976515;28;100294;-73
2023/12/16 04:42:19;;;;;;;15.98;4.28;;;;;;;;;;4983576;28;98240;-73
2023/12/16 04:44:46;;;;;;;10.45;4.05;;;;;;;;;;4978052;28;99541;-73
2023/12/16 04:47:13;;;;;;;16.08;5.03;;;;;;;;;;4974030;28;100155;-73
2023/12/16 04:49:39;;;;;;;22.17;5.00;;;;;;;;;;4976883;28;98366;-73
2023/12/16 04:52:06;;;;;;;23.35;5.20;;;;;;;;;;4983751;28;100491;-73
2023/12/16 04:54:32;;;;;;;11.52;4.65;;;;;;;;;;4971919;28;98349;-73
2023/12/16 04:56:59;;;;;;;13.90;4.93;;;;;;;;;;4974503;28;98970;-74
2023/12/16 04:59:25;;;;;;;8.68;4.18;;;;;;;;;;4986605;28;99454;-73
2023/12/16 05:01:52;;;;;;;22.08;5.03;;;;;;;;;;4973694;28;98249;-73
2023/12/16 05:04:19;;;;;;;16.08;4.40;;;;;;;;;;4984447;28;99390;-72
2023/12/16 05:06:45;;;;;;;15.95;4.90;;;;;;;;;;4990663;28;100566;-72
2023/12/16 05:09:12;;;;;;;17.02;6.18;;;;;;;;;;4971830;28;98213;-72
2023/12/16 05:11:39;;;;;;;17.10;4.22;;;;;;;;;;4971674;28;98672;-72
2023/12/16 05:14:05;;;;;;;17.60;5.22;;;;;;;;;;4989632;28;98279;-73
2023/12/16 05:16:32;;;;;;;26.33;5.15;;;;;;;;;;4986430;28;100257;-73
2023/12/16 05:19:00;;;;;;;14.50;4.68;;;;;;;;;;4974676;28;99878;-72
2023/12/16 05:21:27;;;;;;;17.17;4.65;;;;;;;;;;4989967;28;98251;-73
2023/12/16 05:23:55;;;;;;;20.95;5.82;;;;;;;;;;4977677;28;99574;-73
2023/12/16 05:26:21;;;;;;;18.70;5.00;;;;;;;;;;4970837;28;99141;-73
2023/12/16 05:28:48;;;;;;;28.52;5.68;;;;;;;;;;4978406;28;99207;-73
2023/12/16 05:31:14;;;;;;;21.02;4.47;;;;;;;;;;4969195;28;98900;-73
2023/12/16 05:33:43;;;;;;;18.33;5.55;;;;;;;;;;4983838;28;98906;-73
2023/12/16 05:36:10;;;;;;;21.00;5.45;;;;;;;;;;4973947;28;99436;-72
2023/12/16 05:38:37;;;;;;;12.02;4.20;;;;;;;;;;4970882;28;99845;-74
2023/12/16 05:41:03;;;;;;;22.48;5.68;;;;;;;;;;4985970;28;98241;-73
2023/12/16 05:43:30;;;;;;;17.30;5.15;;;;;;;;;;4981039;28;99644;-73
2023/12/16 05:45:56;;;;;;;22.05;5.05;;;;;;;;;;4969719;28;100050;-72
2023/12/16 05:48:23;;;;;;;22.13;5.32;;;;;;;;;;4970734;28;98219;-73
2023/12/16 05:50:49;;;;;;;13.18;4.78;;;;;;;;;;4971659;28;99656;-72
2023/12/16 05:53:16;;;;;;;21.85;5.45;;;;;;;;;;4970204;28;99005;-73
2023/12/16 05:55:45;;;;;;;16.40;5.43;;;;;;;;;;4982027;28;98286;-72
2023/12/16 05:58:11;;;;;;;18.33;4.70;;;;;;;;;;4970813;28;100188;-73
2023/12/16 06:00:38;;;;;;;20.60;5.05;;;;;;;;;;4969494;28;98430;-73
2023/12/16 06:03:04;;;;;;;17.80;4.80;;;;;;;;;;4974269;28;99948;-73
2023/12/16 06:05:31;;;;;;;14.60;4.85;;;;;;;;;;4986428;28;99973;-72
2023/12/16 06:07:57;;;;;;;14.18;5.22;;;;;;;;;;4989904;28;98361;-73
2023/12/16 06:10:24;;;;;;;17.27;4.88;;;;;;;;;;4990510;28;98686;-72
2023/12/16 06:12:50;;;;;;;17.50;5.18;;;;;;;;;;4990756;28;99968;-73
2023/12/16 06:15:17;;;;;;;17.73;4.97;;;;;;;;;;4989659;28;98224;-73
2023/12/16 06:17:43;;;;;;;28.52;5.28;;;;;;;;;;4972987;28;99875;-72
2023/12/16 06:20:10;;;;;;;21.67;4.68;;;;;;;;;;4987446;28;98231;-72
2023/12/16 06:22:37;;;;;;;35.80;5.22;;;;;;;;;;4981692;28;99634;-72
2023/12/16 06:25:03;;;;;;;20.48;5.47;;;;;;;;;;4970450;28;100194;-71
2023/12/16 06:27:31;;;;;;;25.08;5.30;;;;;;;;;;4965113;28;98353;-71
2023/12/16 06:29:57;;;;;;;16.45;4.75;;;;;;;;;;4980778;28;99596;-73
2023/12/16 06:32:24;;;;;;;7.47;4.20;;;;;;;;;;4989822;28;99995;-72
2023/12/16 06:34:50;;;;;;;24.42;5.47;;;;;;;;;;4990208;28;98343;-72
2023/12/16 06:37:17;;;;;;;17.27;5.10;;;;;;;;;;4989373;28;99488;-72
2023/12/16 06:39:43;;;;;;;27.50;5.38;;;;;;;;;;4993437;28;98961;-73
2023/12/16 06:42:10;;;;;;;26.92;5.75;;;;;;;;;;4989825;28;99381;-72
2023/12/16 06:44:36;;;;;;;21.05;6.70;;;;;;;;;;4988614;28;99060;-72
2023/12/16 06:47:03;;;;;;;17.83;4.13;;;;;;;;;;4989935;28;98263;-73
2023/12/16 06:49:29;;;;;;;21.05;5.57;;;;;;;;;;4972450;28;99821;-72
2023/12/16 06:51:58;;;;;;;30.40;6.47;;;;;;;;;;4969506;28;100070;-72
2023/12/16 06:54:25;;;;;;;14.18;4.53;;;;;;;;;;4969767;28;98251;-72
2023/12/16 06:56:51;;;;;;;19.25;5.25;;;;;;;;;;4969383;28;99529;-73
2023/12/16 06:59:18;;;;;;;18.80;5.10;;;;;;;;;;4972842;28;100541;-72
2023/12/16 07:01:44;;;;;;;23.00;6.28;;;;;;;;;;4970192;28;99586;-72
2023/12/16 07:04:11;;;;;;;16.30;5.50;;;;;;;;;;4968654;28;99019;-72
2023/12/16 07:06:38;;;;;;;21.70;4.97;;;;;;;;;;4969994;28;98287;-72
2023/12/16 07:09:04;;;;;;;22.90;5.20;;;;;;;;;;4969038;28;99312;-73
2023/12/16 07:11:32;;;;;;;16.30;5.18;;;;;;;;;;4968967;28;100029;-72
2023/12/16 07:13:58;;;;;;;12.57;5.13;;;;;;;;;;4969635;28;98227;-72
2023/12/16 07:16:25;;;;;;;11.10;4.60;;;;;;;;;;4970063;28;98586;-72
2023/12/16 07:18:51;;;;;;;15.45;4.28;;;;;;;;;;4968978;28;99001;-72
2023/12/16 07:21:17;;;;;;;23.10;5.35;;;;;;;;;;4972660;28;98429;-71
2023/12/16 07:23:44;;;;;;;17.90;4.82;;;;;;;;;;4969237;28;99336;-72
2023/12/16 07:26:10;;;;;;;21.75;5.80;;;;;;;;;;4969739;28;98251;-71
2023/12/16 07:28:37;;;;;;;18.25;5.18;;;;;;;;;;4969542;28;99699;-74
2023/12/16 07:31:03;;;;;;;18.42;5.18;;;;;;;;;;4966158;28;99263;-72
2023/12/16 07:33:30;;;;;;;19.23;4.47;;;;;;;;;;4948033;28;98237;-72
2023/12/16 07:35:57;;;;;;;32.47;6.32;;;;;;;;;;4950076;28;99513;-72
2023/12/16 07:38:23;;;;;;;28.67;5.93;;;;;;;;;;4949789;28;99114;-72
2023/12/16 07:40:50;;;;;;;18.40;6.53;;;;;;;;;;4949161;28;98869;-72
2023/12/16 07:43:16;;;;;;;21.27;4.95;;;;;;;;;;4952701;28;99433;-72
2023/12/16 07:45:43;;;;;;;19.35;4.90;;;;;;;;;;4949048;28;98214;-73
2023/12/16 07:48:09;;;;;;;14.88;4.00;;;;;;;;;;4956005;28;99486;-73
2023/12/16 07:50:36;;;;;;;15.32;5.57;;;;;;;;;;4969291;28;99337;-73
2023/12/16 07:53:02;;;;;;;16.50;4.60;;;;;;;;;;4968800;28;98060;-72
2023/12/16 07:55:29;;;;;;;18.98;4.80;;;;;;;;;;4969002;28;99288;-73
2023/12/16 07:57:55;;;;;;;21.05;4.80;;;;;;;;;;4968411;28;100529;-73
2023/12/16 08:00:22;;;;;;;19.63;4.95;;;;;;;;;;4967321;28;98258;-72
2023/12/16 08:02:48;;;;;;;23.00;5.35;;;;;;;;;;4969155;28;99701;-73
2023/12/16 08:05:16;;;;;;;17.35;4.22;;;;;;;;;;4972037;28;99971;-72
2023/12/16 08:07:46;;;;;;;26.40;4.70;;;;;;;;;;4968480;28;99360;-72
2023/12/16 08:10:13;;;;;;;26.45;5.38;;;;;;;;;;4968719;28;99846;-73
2023/12/16 08:12:39;;;;;;;20.27;4.82;;;;;;;;;;4969182;28;98191;-73
2023/12/16 08:15:06;;;;;;;14.35;4.90;;;;;;;;;;4968364;28;99535;-73
2023/12/16 08:17:32;;;;;;;17.42;4.65;;;;;;;;;;4968875;28;99119;-73
2023/12/16 08:19:59;;;;;;;19.60;5.30;;;;;;;;;;4969113;28;98204;-73
2023/12/16 08:22:26;;;;;;;24.08;6.40;;;;;;;;;;4967037;28;99377;-73
2023/12/16 08:24:54;;;;;;;18.35;4.53;;;;;;;;;;4968494;28;98983;-73
2023/12/16 08:27:21;;;;;;;19.27;5.30;;;;;;;;;;4973480;28;98240;-72
2023/12/16 08:29:47;;;;;;;21.98;4.97;;;;;;;;;;4955822;28;99024;-73
2023/12/16 08:32:14;;;;;;;12.40;3.83;;;;;;;;;;4972542;28;98301;-73
2023/12/16 08:34:40;;;;;;;18.80;4.75;;;;;;;;;;4972207;28;99267;-73
2023/12/16 08:37:07;;;;;;;9.52;3.90;;;;;;;;;;4970885;28;99927;-73
2023/12/16 08:39:34;;;;;;;14.45;4.72;;;;;;;;;;4972513;28;98255;-73
2023/12/16 08:42:01;;;;;;;29.05;5.30;;;;;;;;;;4971133;28;99403;-73
2023/12/16 08:44:31;;;;;;;12.30;3.42;;;;;;;;;;4971808;28;99156;-72
2023/12/16 08:46:58;;;;;;;17.33;4.32;;;;;;;;;;4972020;28;98333;-73
2023/12/16 08:49:24;;;;;;;13.35;3.70;;;;;;;;;;4974187;28;98509;-72
2023/12/16 08:51:52;;;;;;;15.75;4.05;;;;;;;;;;4971477;28;99167;-73
2023/12/16 08:54:19;;;;;;;16.42;4.22;;;;;;;;;;4970960;28;98256;-72
2023/12/16 08:56:46;;;;;;;14.30;4.78;;;;;;;;;;4968004;28;99835;-73
2023/12/16 08:59:12;;;;;;;19.33;4.22;;;;;;;;;;4971594;28;98045;-73
2023/12/16 09:01:39;;;;;;;14.40;5.00;;;;;;;;;;4971717;28;99693;-73
2023/12/16 09:04:06;;;;;;;21.88;4.72;;;;;;;;;;4970738;28;99881;-74
2023/12/16 09:06:37;;;;;;;15.63;3.65;;;;;;;;;;4971706;28;98219;-74
2023/12/16 09:09:03;;;;;;;21.77;4.45;;;;;;;;;;4975232;28;98490;-73
2023/12/16 09:11:30;;;;;;;14.20;3.75;;;;;;;;;;4970299;28;98487;-74
2023/12/16 09:13:56;;;;;;;19.92;4.28;;;;;;;;;;4971608;28;99840;-73
2023/12/16 09:16:23;;;;;;;17.40;5.38;;;;;;;;;;4971170;28;99724;-73
2023/12/16 09:18:49;;;;;;;19.00;4.68;;;;;;;;;;4970671;28;98470;-74
2023/12/16 09:21:16;;;;;;;12.85;4.95;;;;;;;;;;4969443;28;99545;-74
2023/12/16 09:23:44;;;;;;;15.38;4.30;;;;;;;;;;4967749;28;99213;-74
2023/12/16 09:26:10;;;;;;;16.80;4.85;;;;;;;;;;4970290;28;98288;-78
2023/12/16 09:28:36;;;;;;;16.80;4.95;;;;;;;;;;4971906;28;99669;-74
2023/12/16 09:31:03;;;;;;;21.63;5.85;;;;;;;;;;4973004;28;98823;-73
2023/12/16 09:33:30;;;;;;;22.17;5.55;;;;;;;;;;4970662;28;99720;-74
2023/12/16 09:35:57;;;;;;;21.27;6.18;;;;;;;;;;4967197;28;99783;-72
2023/12/16 09:38:23;;;;;;;28.05;5.93;;;;;;;;;;4966396;28;99623;-73
2023/12/16 09:40:50;;;;;;;22.77;6.15;;;;;;;;;;4966641;28;99576;-73
2023/12/16 09:43:16;;;;;;;22.73;7.40;;;;;;;;;;4968786;28;100011;-72
2023/12/16 09:45:44;;;;;;;22.52;7.40;;;;;;;;;;4969008;28;99480;-73
2023/12/16 09:48:12;;;;;;;20.92;6.80;;;;;;;;;;4962598;28;99263;-74
2023/12/16 09:50:40;;;;;;;18.55;6.22;;;;;;;;;;4965592;28;100242;-74
2023/12/16 09:53:06;;;;;;;18.67;6.35;;;;;;;;;;4972349;28;98709;-73
2023/12/16 09:55:33;;;;;;;17.33;6.55;;;;;;;;;;4963702;28;100125;-72
2023/12/16 09:58:00;;;;;;;22.38;6.88;;;;;;;;;;4965272;28;98438;-74
2023/12/16 10:00:28;;;;;;;22.33;6.85;;;;;;;;;;4962503;28;99542;-73
2023/12/16 10:02:56;;;;;;;29.15;7.15;;;;;;;;;;4967787;28;99866;-74
2023/12/16 10:05:28;;;;;;;23.88;7.07;;;;;;;;;;4964498;28;98649;-74
2023/12/16 10:08:02;;;;;;;18.73;7.37;;;;;;;;;;4968179;28;98555;-72
2023/12/16 10:10:28;;;;;;;26.10;7.10;;;;;;;;;;4967419;28;99194;-73
2023/12/16 10:12:54;;;;;;;34.75;9.18;;;;;;;;;;4974906;28;98227;-73
2023/12/16 10:15:31;;;;;;;24.67;7.15;;;;;;;;;;4971336;28;99877;-72
2023/12/16 10:17:59;;;;;;;17.95;7.80;;;;;;;;;;4969617;28;98270;-72
2023/12/16 10:20:26;;;;;;;31.33;8.73;;;;;;;;;;4955511;28;98591;-73
2023/12/16 10:22:53;;;;;;;27.77;9.00;;;;;;;;;;4967513;28;100174;-73
2023/12/16 10:25:19;;;;;;;28.45;8.43;;;;;;;;;;4973469;28;98219;-74
2023/12/16 10:27:46;;;;;;;23.98;8.40;;;;;;;;;;4969559;28;99640;-72
2023/12/16 10:30:13;;;;;;;25.48;8.38;;;;;;;;;;4967429;28;100404;-72
2023/12/16 10:32:40;;;;;;;24.85;8.13;;;;;;;;;;4976815;28;98627;-73
2023/12/16 10:35:07;;;;;;;24.95;8.07;;;;;;;;;;4970345;28;99435;-74
2023/12/16 10:37:47;;;;;;;26.05;8.82;;;;;;;;;;4979243;28;100354;-73
2023/12/16 10:40:14;;;;;;;21.00;7.50;;;;;;;;;;4972658;28;99656;-73
2023/12/16 10:42:41;;;;;;;21.20;8.02;;;;;;;;;;4967844;28;100184;-74
2023/12/16 10:45:09;;;;;;;19.73;8.40;;;;;;;;;;4966166;28;98463;-73
2023/12/16 10:47:37;;;;;;;30.40;8.10;;;;;;;;;;4967195;28;99795;-72
2023/12/16 10:50:03;;;;;;;33.53;10.27;;;;;;;;;;4955240;28;99288;-75
2023/12/16 10:52:34;;;;;;;27.20;8.63;;;;;;;;;;4974791;28;98457;-75
2023/12/16 10:55:02;;;;;;;28.38;9.18;;;;;;;;;;4969532;28;99614;-74
2023/12/16 10:57:29;;;;;;;31.58;9.23;;;;;;;;;;4969709;28;99048;-74
2023/12/16 11:00:06;;;;;;;30.70;10.20;;;;;;;;;;4972299;28;98342;-75
2023/12/16 11:02:36;;;;;;;25.55;8.93;;;;;;;;;;4971582;28;100143;-74
2023/12/16 11:05:07;;;;;;;30.83;10.23;;;;;;;;;;4984725;28;98206;-77
2023/12/16 11:07:38;;;;;;;24.83;9.85;;;;;;;;;;4955579;28;99430;-76
2023/12/16 11:10:05;;;;;;;29.42;10.07;;;;;;;;;;4963057;28;99972;-75
2023/12/16 11:12:34;;;;;;;24.83;10.52;;;;;;;;;;4964400;28;98341;-75
2023/12/16 11:15:02;;;;;;;28.10;10.52;;;;;;;;;;4956930;28;99655;-74
2023/12/16 11:17:35;;;;;;;34.53;11.40;;;;;;;;;;4957573;28;100032;-74
2023/12/16 11:20:03;;;;;;;26.63;10.80;;;;;;;;;;4971332;28;98682;-76
2023/12/16 11:22:30;;;;;;;22.00;10.48;;;;;;;;;;4957894;28;100690;-75
2023/12/16 11:24:57;;;;;;;19.08;10.35;;;;;;;;;;4959969;28;99358;-73
2023/12/16 11:27:24;;;;;;;26.83;12.63;;;;;;;;;;4959026;28;101530;-74
2023/12/16 11:29:50;;;;;;;25.20;12.50;;;;;;;;;;4958229;28;100274;-74
2023/12/16 11:32:16;;;;;;;21.48;11.18;;;;;;;;;;4973479;28;99613;-75
2023/12/16 11:34:44;;;;;;;31.20;13.13;;;;;;;;;;4966523;28;99775;-77
2023/12/16 11:37:11;;;;;;;26.90;12.43;;;;;;;;;;4965234;28;100103;-74
2023/12/16 11:39:39;;;;;;;34.70;12.95;;;;;;;;;;4962989;28;99769;-78
2023/12/16 11:42:06;;;;;;;26.15;14.52;;;;;;;;;;4968647;28;99863;-77
2023/12/16 11:44:48;;;;;;;28.83;11.65;;;;;;;;;;4980391;28;98198;-74
2023/12/16 11:47:19;;;;;;;28.85;10.43;;;;;;;;;;4963564;28;98694;-77
2023/12/16 11:49:47;;;;;;;35.60;12.05;;;;;;;;;;4964710;28;99981;-74
2023/12/16 11:52:17;;;;;;;29.95;10.73;;;;;;;;;;4968645;28;99491;-76
2023/12/16 11:54:43;;;;;;;23.25;10.98;;;;;;;;;;4967891;28;100033;-75
2023/12/16 11:57:09;;;;;;;32.38;11.80;;;;;;;;;;4967022;28;100157;-77
2023/12/16 11:59:36;;;;;;;27.98;12.60;;;;;;;;;;4968580;28;98558;-75
2023/12/16 12:02:02;;;;;;;28.90;11.88;;;;;;;;;;4971037;28;101079;-75
2023/12/16 12:04:29;;;;;;;25.38;12.07;;;;;;;;;;4973204;28;98897;-75
2023/12/16 12:06:56;;;;;;;18.45;9.48;;;;;;;;;;4969795;27;98828;-76
2023/12/16 12:09:23;;;;;;;28.95;10.88;;;;;;;;;;4972392;28;99259;-76
2023/12/16 12:11:49;;;;;;;30.35;11.18;;;;;;;;;;4970265;28;98270;-73
2023/12/16 12:14:18;;;;;;;20.73;10.13;;;;;;;;;;4970891;28;98506;-74
2023/12/16 12:16:45;;;;;;;19.90;9.68;;;;;;;;;;4972658;28;100245;-75
2023/12/16 12:19:12;;;;;;;15.95;8.38;;;;;;;;;;4972236;28;98324;-74
2023/12/16 12:21:39;;;;;;;11.65;7.13;;;;;;;;;;4971348;28;99797;-76
2023/12/16 12:24:06;;;;;;;13.20;7.40;;;;;;;;;;4971472;28;99146;-77
2023/12/16 12:26:32;;;;;;;9.15;6.70;;;;;;;;;;4967978;28;98253;-77
2023/12/16 12:28:59;;;;;;;12.50;6.22;;;;;;;;;;4951055;28;99952;-77
2023/12/16 12:31:29;;;;;;;11.15;6.72;;;;;;;;;;4950901;28;98328;-77
2023/12/16 12:33:55;;;;;;;8.73;6.95;;;;;;;;;;4952368;28;98012;-77
2023/12/16 12:36:23;;;;;;;11.38;7.75;;;;;;;;;;4952309;28;99883;-74
2023/12/16 12:38:53;;;;;;;11.88;6.45;;;;;;;;;;4955165;28;98415;-77
2023/12/16 12:41:20;;;;;;;10.63;7.20;;;;;;;;;;4959315;28;99921;-74
2023/12/16 12:43:46;;;;;;;8.63;6.88;;;;;;;;;;4977870;28;100116;-79
2023/12/16 12:46:16;;;;;;;9.80;5.97;;;;;;;;;;4988832;28;98245;-74
2023/12/16 12:48:56;;;;;;;;;;;;;;;;;;4968380;28;99237;-76
2023/12/16 12:51:26;;;;;;;6.80;6.10;;;;;;;;;;4964878;28;99861;-76
2023/12/16 12:53:58;;;;;;;17.38;6.40;;;;;;;;;;4970007;28;100004;-73
2023/12/16 12:56:28;;;;;;;7.03;6.03;;;;;;;;;;4969341;28;99314;-75
2023/12/16 12:58:54;;;;;;;11.93;7.57;;;;;;;;;;4972329;28;99093;-74
2023/12/16 13:01:21;;;;;;;9.80;6.63;;;;;;;;;;4970784;28;100527;-74
2023/12/16 13:03:48;;;;;;;12.20;6.68;;;;;;;;;;4963240;28;100624;-74
2023/12/16 13:06:14;;;;;;;18.52;5.70;;;;;;;;;;4967686;28;98448;-74
2023/12/16 13:08:41;;;;;;;9.00;6.05;;;;;;;;;;4971725;28;99749;-76
2023/12/16 13:11:08;;;;;;;9.88;5.50;;;;;;;;;;4972488;28;98481;-72
2023/12/16 13:13:37;;;;;;;4.40;3.83;;;;;;;;;;4971290;28;99947;-75
2023/12/16 13:16:04;;;;;;;5.18;4.47;;;;;;;;;;4971731;28;101407;-75
2023/12/16 13:18:42;;;;;;;5.65;4.80;;;;;;;;;;4971993;28;98259;-74
2023/12/16 13:21:15;;;;;;;10.30;5.50;;;;;;;;;;4969141;27;98595;-74
2023/12/16 13:23:42;;;;;;;7.10;4.78;;;;;;;;;;4994102;28;99196;-74
2023/12/16 13:26:11;;;;;;;6.28;4.90;;;;;;;;;;4965011;28;99435;-74
2023/12/16 13:28:41;;;;;;;8.20;5.03;;;;;;;;;;4966553;28;98826;-75
2023/12/16 13:31:19;;;;;;;7.38;5.45;;;;;;;;;;4969169;28;99354;-76
2023/12/16 13:33:46;;;;;;;7.35;6.07;;;;;;;;;;4972110;28;98757;-74
2023/12/16 13:36:13;;;;;;;9.68;5.65;;;;;;;;;;4969921;28;99143;-76
2023/12/16 13:39:00;;;;;;;13.05;5.75;;;;;;;;;;4970677;28;98349;-74
2023/12/16 13:41:26;;;;;;;14.05;5.55;;;;;;;;;;4970884;28;99406;-74
2023/12/16 13:43:53;;;;;;;9.10;5.68;;;;;;;;;;4964074;28;100827;-73
2023/12/16 13:46:19;;;;;;;10.18;6.35;;;;;;;;;;4966461;28;99157;-74
2023/12/16 13:48:46;;;;;;;12.70;6.70;;;;;;;;;;4963900;28;99218;-75
2023/12/16 13:51:13;;;;;;;11.55;7.22;;;;;;;;;;4968038;28;99295;-74
2023/12/16 13:53:39;;;;;;;14.68;8.55;;;;;;;;;;4974426;28;98299;-75
2023/12/16 13:56:06;;;;;;;11.70;7.63;;;;;;;;;;4960216;28;100369;-74
2023/12/16 13:58:33;;;;;;;13.45;8.18;;;;;;;;;;4969615;28;98230;-74
2023/12/16 14:00:59;;;;;;;11.77;8.10;;;;;;;;;;4967529;28;99508;-74
2023/12/16 14:03:26;;;;;;;17.02;11.35;;;;;;;;;;4959783;28;99547;-75
2023/12/16 14:05:53;;;;;;;11.30;8.63;;;;;;;;;;4967739;28;98739;-76
2023/12/16 14:08:20;;;;;;;13.88;8.70;;;;;;;;;;4963024;28;99798;-74
2023/12/16 14:10:47;;;;;;;14.13;8.48;;;;;;;;;;4968079;28;101487;-73
2023/12/16 14:13:14;;;;;;;11.18;8.60;;;;;;;;;;4972073;28;98465;-73
2023/12/16 14:15:40;;;;;;;12.98;8.65;;;;;;;;;;4971727;28;99953;-73
2023/12/16 14:18:07;;;;;;;13.93;8.75;;;;;;;;;;4965584;28;98216;-76
2023/12/16 14:20:34;;;;;;;10.23;8.15;;;;;;;;;;4967085;28;99556;-75
2023/12/16 14:23:00;;;;;;;11.80;7.82;;;;;;;;;;4967418;28;102506;-74
2023/12/16 14:25:27;;;;;;;12.50;7.93;;;;;;;;;;4963655;28;98454;-76
2023/12/16 14:27:54;;;;;;;9.48;7.60;;;;;;;;;;4963601;28;99810;-75
2023/12/16 14:30:20;;;;;;;11.48;8.27;;;;;;;;;;4967268;28;98449;-74